Time,TemperatureF,DewpointF,PressureIn,WindDirection,WindDirectionDegrees,WindSpeedMPH,WindSpeedGustMPH,Humidity,HourlyPrecipIn,Conditions,Clouds,dailyrainin,SoftwareType,DateUTC
2013-01-21 00:34:00,25.0,15.0,-100.00,NNW,330,3.0,6.0,66,-99.99,,,-99.99,,2013-01-21 05:34:00,
2013-01-21 00:43:00,25.0,15.0,-100.00,NNW,330,3.0,6.0,66,-99.99,,,-99.99,,2013-01-21 05:43:00,
2013-01-21 00:53:00,25.0,15.0,-100.00,NNW,335,2.0,7.0,66,-99.99,,,-99.99,,2013-01-21 05:53:00,
2013-01-21 01:03:00,25.0,15.0,-100.00,NNW,335,2.0,7.0,66,-99.99,,,-99.99,,2013-01-21 06:03:00,
2013-01-21 01:12:00,25.0,15.0,-100.00,NNW,335,2.0,7.0,66,-99.99,,,-99.99,,2013-01-21 06:12:00,
2013-01-21 01:23:00,25.0,15.0,-100.00,NW,310,3.0,7.0,68,-99.99,,,-99.99,,2013-01-21 06:23:00,
2013-01-21 01:33:00,24.0,15.0,-100.00,NW,315,3.0,7.0,69,-99.99,,,-99.99,,2013-01-21 06:33:00,
2013-01-21 01:43:00,24.0,15.0,-100.00,NW,315,3.0,7.0,69,-99.99,,,-99.99,,2013-01-21 06:43:00,
2013-01-21 01:53:00,24.0,15.0,-100.00,NNW,330,1.0,3.0,70,-99.99,,,-99.99,,2013-01-21 06:53:00,
2013-01-21 02:03:00,24.0,16.0,-100.00,NNW,330,2.0,5.0,72,-99.99,,,-99.99,,2013-01-21 07:03:00,
2013-01-21 02:12:00,24.0,16.0,-100.00,NNW,330,2.0,5.0,72,-99.99,,,-99.99,,2013-01-21 07:12:00,
2013-01-21 02:22:00,24.0,16.0,-100.00,NNW,330,2.0,5.0,72,-99.99,,,-99.99,,2013-01-21 07:22:00,
2013-01-21 02:33:00,24.0,18.0,-100.00,NW,320,1.0,2.0,75,-99.99,,,-99.99,,2013-01-21 07:33:00,
2013-01-21 02:42:00,24.0,18.0,-100.00,NW,320,1.0,2.0,75,-99.99,,,-99.99,,2013-01-21 07:42:00,
2013-01-21 02:53:00,25.0,18.0,-100.00,NW,320,3.0,4.0,75,-99.99,,,-99.99,,2013-01-21 07:53:00,
2013-01-21 03:03:00,25.0,18.0,-100.00,NW,320,3.0,4.0,75,-99.99,,,-99.99,,2013-01-21 08:03:00,
2013-01-21 03:13:00,25.0,18.0,-100.00,NW,320,3.0,4.0,75,-99.99,,,-99.99,,2013-01-21 08:13:00,
2013-01-21 03:23:00,26.0,18.0,-100.00,NW,305,6.0,9.0,74,-99.99,,,-99.99,,2013-01-21 08:23:00,
2013-01-21 03:32:00,26.0,18.0,-100.00,NW,305,6.0,9.0,74,-99.99,,,-99.99,,2013-01-21 08:32:00,
2013-01-21 03:42:00,26.0,18.0,-100.00,NW,305,6.0,9.0,74,-99.99,,,-99.99,,2013-01-21 08:42:00,
2013-01-21 03:53:00,26.0,18.0,-100.00,NW,305,6.0,9.0,74,-99.99,,,-99.99,,2013-01-21 08:53:00,
2013-01-21 06:53:00,24.0,17.0,-100.00,West,280,3.0,12.0,74,-99.99,,,-99.99,,2013-01-21 11:53:00,
2013-01-21 07:02:00,23.0,16.0,-100.00,West,275,6.0,14.0,74,-99.99,,,-99.99,,2013-01-21 12:02:00,
2013-01-21 07:12:00,23.0,16.0,-100.00,West,275,6.0,14.0,74,-99.99,,,-99.99,,2013-01-21 12:12:00,
2013-01-21 07:22:00,22.0,15.0,-100.00,NW,310,4.0,15.0,74,-99.99,,,-99.99,,2013-01-21 12:22:00,
2013-01-21 07:32:00,22.0,15.0,-100.00,NW,310,4.0,15.0,74,-99.99,,,-99.99,,2013-01-21 12:32:00,
2013-01-21 07:42:00,22.0,15.0,-100.00,NW,310,4.0,15.0,74,-99.99,,,-99.99,,2013-01-21 12:42:00,
2013-01-21 07:53:00,22.0,15.0,-100.00,WNW,290,2.0,11.0,74,-99.99,,,-99.99,,2013-01-21 12:53:00,
2013-01-21 08:02:00,22.0,15.0,-100.00,WNW,300,5.0,14.0,75,-99.99,,,-99.99,,2013-01-21 13:02:00,
2013-01-21 08:13:00,22.0,15.0,-100.00,WNW,300,5.0,14.0,75,-99.99,,,-99.99,,2013-01-21 13:13:00,
2013-01-21 08:23:00,22.0,15.0,-100.00,WNW,300,5.0,14.0,75,-99.99,,,-99.99,,2013-01-21 13:23:00,
2013-01-21 08:33:00,22.0,15.0,-100.00,WNW,300,5.0,14.0,75,-99.99,,,-99.99,,2013-01-21 13:33:00,
2013-01-21 08:43:00,22.0,15.0,-100.00,WNW,300,5.0,14.0,75,-99.99,,,-99.99,,2013-01-21 13:43:00,
2013-01-21 09:03:00,22.0,15.0,-100.00,NW,315,7.0,17.0,74,-99.99,,,-99.99,,2013-01-21 14:03:00,
2013-01-21 09:12:00,22.0,15.0,-100.00,NW,315,7.0,17.0,74,-99.99,,,-99.99,,2013-01-21 14:12:00,
2013-01-21 09:23:00,22.0,15.0,-100.00,WNW,300,6.0,12.0,74,-99.99,,,-99.99,,2013-01-21 14:23:00,
2013-01-21 09:32:00,22.0,15.0,-100.00,WNW,300,6.0,12.0,74,-99.99,,,-99.99,,2013-01-21 14:32:00,
2013-01-21 09:43:00,22.0,15.0,-100.00,WNW,300,6.0,12.0,74,-99.99,,,-99.99,,2013-01-21 14:43:00,
2013-01-21 09:53:00,22.0,15.0,-100.00,WNW,300,6.0,12.0,74,-99.99,,,-99.99,,2013-01-21 14:53:00,
2013-01-21 10:03:00,22.0,13.0,-100.00,West,280,9.0,20.0,66,-99.99,,,-99.99,,2013-01-21 15:03:00,
2013-01-21 10:13:00,22.0,13.0,-100.00,West,280,9.0,20.0,66,-99.99,,,-99.99,,2013-01-21 15:13:00,
2013-01-21 10:23:00,22.0,11.0,-100.00,WNW,285,9.0,19.0,63,-99.99,,,-99.99,,2013-01-21 15:23:00,
2013-01-21 10:33:00,22.0,11.0,-100.00,West,275,7.0,21.0,62,-99.99,,,-99.99,,2013-01-21 15:33:00,
2013-01-21 10:43:00,22.0,11.0,-100.00,West,275,7.0,21.0,62,-99.99,,,-99.99,,2013-01-21 15:43:00,
2013-01-21 10:53:00,22.0,11.0,-100.00,West,275,7.0,21.0,62,-99.99,,,-99.99,,2013-01-21 15:53:00,
2013-01-21 11:03:00,24.0,11.0,-100.00,WNW,295,10.0,22.0,57,-99.99,,,-99.99,,2013-01-21 16:03:00,
2013-01-21 11:12:00,24.0,11.0,-100.00,WNW,295,10.0,22.0,57,-99.99,,,-99.99,,2013-01-21 16:12:00,
2013-01-21 11:23:00,22.0,10.0,-100.00,WNW,300,12.0,22.0,59,-99.99,,,-99.99,,2013-01-21 16:23:00,
2013-01-21 11:33:00,22.0,10.0,-100.00,WNW,300,12.0,22.0,59,-99.99,,,-99.99,,2013-01-21 16:33:00,
2013-01-21 11:43:00,22.0,10.0,-100.00,WNW,300,12.0,22.0,59,-99.99,,,-99.99,,2013-01-21 16:43:00,
2013-01-21 11:53:00,22.0,10.0,-100.00,WNW,300,12.0,22.0,59,-99.99,,,-99.99,,2013-01-21 16:53:00,
2013-01-21 12:00:00,26.0,11.0,-100.00,NW,305,7.0,16.0,52,-99.99,,,-99.99,,2013-01-21 17:00:00,
2013-01-21 12:02:00,24.0,11.0,-100.00,NW,310,8.0,19.0,58,-99.99,,,-99.99,,2013-01-21 17:02:00,
2013-01-21 12:12:00,24.0,11.0,-100.00,NW,310,8.0,19.0,58,-99.99,,,-99.99,,2013-01-21 17:12:00,
2013-01-21 12:23:00,26.0,11.0,-100.00,NW,305,7.0,16.0,52,-99.99,,,-99.99,,2013-01-21 17:23:00,
2013-01-21 12:33:00,26.0,11.0,-100.00,NW,305,7.0,16.0,52,-99.99,,,-99.99,,2013-01-21 17:33:00,
2013-01-21 12:43:00,26.0,11.0,-100.00,NW,305,7.0,16.0,52,-99.99,,,-99.99,,2013-01-21 17:43:00,
2013-01-21 12:53:00,26.0,11.0,-100.00,NW,305,7.0,16.0,52,-99.99,,,-99.99,,2013-01-21 17:53:00,
2013-01-21 13:53:00,25.0,7.0,-100.00,NW,320,11.0,21.0,47,-99.99,,,-99.99,,2013-01-21 18:53:00,
2013-01-21 14:03:00,24.0,6.0,-100.00,NW,310,9.0,19.0,46,-99.99,,,-99.99,,2013-01-21 19:03:00,
2013-01-21 14:12:00,24.0,6.0,-100.00,NW,310,9.0,19.0,46,-99.99,,,-99.99,,2013-01-21 19:12:00,
2013-01-21 14:22:00,24.0,6.0,-100.00,NW,310,9.0,19.0,46,-99.99,,,-99.99,,2013-01-21 19:22:00,
2013-01-21 14:33:00,24.0,6.0,-100.00,NW,310,9.0,19.0,46,-99.99,,,-99.99,,2013-01-21 19:33:00,
2013-01-21 14:43:00,24.0,6.0,-100.00,NW,310,9.0,19.0,46,-99.99,,,-99.99,,2013-01-21 19:43:00,
2013-01-21 15:03:00,25.0,6.0,-100.00,WNW,300,11.0,21.0,45,-99.99,,,-99.99,,2013-01-21 20:03:00,
2013-01-21 15:12:00,25.0,6.0,-100.00,WNW,300,11.0,21.0,45,-99.99,,,-99.99,,2013-01-21 20:12:00,
2013-01-21 15:23:00,24.0,4.0,-100.00,NW,310,12.0,23.0,42,-99.99,,,-99.99,,2013-01-21 20:23:00,
2013-01-21 15:33:00,24.0,4.0,-100.00,NW,310,12.0,23.0,42,-99.99,,,-99.99,,2013-01-21 20:33:00,
2013-01-21 15:43:00,24.0,4.0,-100.00,NW,310,12.0,23.0,42,-99.99,,,-99.99,,2013-01-21 20:43:00,
2013-01-21 15:53:00,24.0,4.0,-100.00,NW,310,12.0,23.0,42,-99.99,,,-99.99,,2013-01-21 20:53:00,
2013-01-21 16:03:00,24.0,4.0,-100.00,NW,310,7.0,22.0,42,-99.99,,,-99.99,,2013-01-21 21:03:00,
2013-01-21 16:12:00,24.0,4.0,-100.00,NW,310,7.0,22.0,42,-99.99,,,-99.99,,2013-01-21 21:12:00,
2013-01-21 16:23:00,24.0,4.0,-100.00,NW,310,7.0,22.0,42,-99.99,,,-99.99,,2013-01-21 21:23:00,
2013-01-21 16:33:00,24.0,4.0,-100.00,NW,310,7.0,22.0,42,-99.99,,,-99.99,,2013-01-21 21:33:00,
2013-01-21 16:43:00,24.0,4.0,-100.00,NW,310,7.0,22.0,42,-99.99,,,-99.99,,2013-01-21 21:43:00,
2013-01-21 17:03:00,21.0,2.0,-100.00,NW,310,7.0,19.0,45,-99.99,,,-99.99,,2013-01-21 22:03:00,
2013-01-21 17:23:00,21.0,3.0,-100.00,NW,305,9.0,19.0,45,-99.99,,,-99.99,,2013-01-21 22:23:00,
2013-01-21 17:33:00,21.0,3.0,-100.00,NW,305,9.0,19.0,45,-99.99,,,-99.99,,2013-01-21 22:33:00,
2013-01-21 17:43:00,21.0,3.0,-100.00,NW,305,9.0,19.0,45,-99.99,,,-99.99,,2013-01-21 22:43:00,
2013-01-21 17:53:00,21.0,3.0,-100.00,NW,305,9.0,19.0,45,-99.99,,,-99.99,,2013-01-21 22:53:00,